Time;durP1;ratioP1;P1;durP2;ratioP2;P2;SDS_P1;SDS_P2;PMS_P1;PMS_P2;Temp;Humidity;BMP_temperature;BMP_pressure;BME280_temperature;BME280_humidity;BME280_pressure;Samples;Min_cycle;Max_cycle;Signal;HPM_P1;HPM_P2
2021/08/23 00:00:56;;;;;;;;;;;;;;;20.27;70.38;98121.13;1764754;80;22161;-87
2021/08/23 00:03:22;;;;;;;;;;;;;;;20.14;70.50;98114.22;1767191;80;20972;-86
2021/08/23 00:05:51;;;;;;;;;;;;;;;20.04;70.67;98122.41;1768464;79;24389;-87
2021/08/23 00:08:18;;;;;;;;;;;;;;;20.01;70.83;98125.44;1765735;79;20195;-87
2021/08/23 00:10:45;;;;;;;;;;;;;;;20.14;71.01;98124.02;1771246;80;24809;-87
2021/08/23 00:13:11;;;;;;;;;;;;;;;20.18;71.16;98112.89;1729923;80;21912;-87
2021/08/23 00:15:39;;;;;;;;;;;;;;;20.13;71.28;98116.54;1727742;80;20897;-87
2021/08/23 00:18:05;;;;;;;;;;;;;;;20.17;71.42;98120.53;1767382;80;24408;-87
2021/08/23 00:20:43;;;;;;;;;;;;;;;20.31;71.56;98121.13;1763463;80;20465;-86
2021/08/23 00:23:11;;;;;;;;;;;;;;;20.35;71.66;98121.09;1765208;80;24995;-87
2021/08/23 00:25:37;;;;;;;;;;;;;;;20.38;71.73;98127.40;1766403;79;22058;-87
2021/08/23 00:28:03;;;;;;;;;;;;;;;20.44;71.80;98136.50;1761414;80;26149;-87
2021/08/23 00:30:30;;;;;;;;;;;;;;;20.47;71.87;98136.13;1762081;79;24502;-87
2021/08/23 00:32:56;;;;;;;;;;;;;;;20.45;71.91;98129.69;1768438;80;20313;-88
2021/08/23 00:35:22;;;;;;;;;;;;;;;20.38;71.96;98131.38;1764921;79;24748;-87
2021/08/23 00:37:50;;;;;;;;;;;;;;;20.38;72.02;98131.38;1764017;80;21966;-87
2021/08/23 00:40:19;;;;;;;;;;;;;;;20.40;72.10;98128.56;1758510;80;26038;-90
2021/08/23 00:42:45;;;;;;;;;;;;;;;20.34;72.16;98129.27;1764012;79;24640;-90
2021/08/23 00:45:11;;;;;;;;;;;;;;;20.19;72.21;98122.48;1763864;80;20891;-89
2021/08/23 00:47:37;;;;;;;;;;;;;;;20.09;72.34;98126.37;1762955;80;25684;-89
2021/08/23 00:50:03;;;;;;;;;;;;;;;19.99;72.45;98127.42;1752765;80;20392;-86
2021/08/23 00:52:35;;;;;;;;;;;;;;;20.02;72.62;98130.22;1749196;82;27205;-88
2021/08/23 00:55:02;;;;;;;;;;;;;;;20.15;72.75;98140.29;1736126;82;25322;-87
2021/08/23 00:57:28;;;;;;;;;;;;;;;20.14;72.84;98136.80;1746294;82;20285;-87
2021/08/23 00:59:54;;;;;;;;;;;;;;;20.16;72.96;98128.17;1713373;82;24788;-88
2021/08/23 01:02:22;;;;;;;;;;;;;;;20.11;73.07;98129.69;1750821;82;21971;-87
2021/08/23 01:04:56;;;;;;;;;;;;;;;20.02;73.16;98132.88;1749430;82;26166;-87
2021/08/23 01:07:24;;;;;;;;;;;;;;;20.05;73.28;98128.06;1747679;82;24456;-86
2021/08/23 01:09:53;;;;;;;;;;;;;;;20.17;73.42;98130.33;1750648;81;20219;-87
2021/08/23 01:12:19;;;;;;;;;;;;;;;20.23;73.51;98128.30;1747533;82;25620;-87
2021/08/23 01:14:45;;;;;;;;;;;;;;;20.22;73.58;98123.48;1751329;82;20238;-86
2021/08/23 01:17:15;;;;;;;;;;;;;;;20.23;73.65;98119.83;1751277;82;21525;-85
2021/08/23 01:19:47;;;;;;;;;;;;;;;20.18;73.72;98112.89;1750830;82;24549;-85
2021/08/23 01:22:15;;;;;;;;;;;;;;;20.13;73.79;98105.91;1752470;80;20261;-85
2021/08/23 01:24:44;;;;;;;;;;;;;;;20.10;73.88;98102.30;1743872;81;26468;-85
2021/08/23 01:27:10;;;;;;;;;;;;;;;20.10;73.94;98101.46;1750937;82;22746;-85
2021/08/23 01:29:37;;;;;;;;;;;;;;;20.10;74.00;98097.48;1750663;82;21014;-85
2021/08/23 01:32:14;;;;;;;;;;;;;;;20.16;74.08;98091.47;1750679;80;25139;-85
2021/08/23 01:34:41;;;;;;;;;;;;;;;20.13;74.14;98088.64;1748616;82;20235;-86
2021/08/23 01:37:14;;;;;;;;;;;;;;;20.01;74.17;98081.60;1750846;82;24735;-85
2021/08/23 01:39:40;;;;;;;;;;;;;;;19.94;74.26;98083.80;1751142;82;22106;-86
2021/08/23 01:42:16;;;;;;;;;;;;;;;19.90;74.34;98082.49;1750535;82;26937;-85
2021/08/23 01:44:42;;;;;;;;;;;;;;;19.92;74.45;98082.63;1776716;79;24401;-85
2021/08/23 01:47:08;;;;;;;;;;;;;;;20.01;74.54;98087.41;1732210;81;20315;-86
2021/08/23 01:49:34;;;;;;;;;;;;;;;20.10;74.61;98087.68;1744569;79;24797;-86
2021/08/23 01:52:00;;;;;;;;;;;;;;;20.17;74.69;98091.30;1800920;78;22146;-86
2021/08/23 01:54:26;;;;;;;;;;;;;;;20.10;74.74;98073.56;1755878;80;20858;-86
2021/08/23 01:56:52;;;;;;;;;;;;;;;20.12;74.75;98083.03;1801972;78;20287;-86
2021/08/23 01:59:18;;;;;;;;;;;;;;;20.05;74.81;98084.23;1771170;80;20816;-86
2021/08/23 02:01:47;;;;;;;;;;;;;;;19.97;74.84;98084.26;1773437;80;25468;-86
2021/08/23 02:04:13;;;;;;;;;;;;;;;19.88;74.88;98076.02;1764682;80;22090;-86
2021/08/23 02:06:39;;;;;;;;;;;;;;;19.81;74.93;98076.88;1806776;78;21031;-86
2021/08/23 02:09:05;;;;;;;;;;;;;;;19.76;74.97;98075.25;1808495;78;20855;-86
2021/08/23 02:11:32;;;;;;;;;;;;;;;19.72;75.05;98073.95;1762111;78;20790;-85
2021/08/23 02:13:58;;;;;;;;;;;;;;;19.73;75.14;98076.94;1801649;78;24811;-85
2021/08/23 02:16:25;;;;;;;;;;;;;;;19.69;75.22;98071.65;1758083;80;21952;-87
2021/08/23 02:18:56;;;;;;;;;;;;;;;19.71;75.31;98073.61;1802210;78;25624;-88
2021/08/23 02:21:43;;;;;;;;;;;;;;;19.74;75.36;98074.61;1767217;80;24542;-87
2021/08/23 02:24:17;;;;;;;;;;;;;;;19.76;75.46;98077.90;1760142;80;20222;-87
2021/08/23 02:26:59;;;;;;;;;;;;;;;19.74;75.52;98082.58;1806769;78;24738;-87
2021/08/23 02:29:25;;;;;;;;;;;;;;;19.68;75.62;98089.91;1802571;78;22080;-87
2021/08/23 02:31:51;;;;;;;;;;;;;;;19.65;75.70;98092.39;1807669;78;21106;-87
2021/08/23 02:34:30;;;;;;;;;;;;;;;19.62;75.78;98084.78;1808268;78;20757;-88
2021/08/23 02:37:06;;;;;;;;;;;;;;;19.62;75.87;98085.61;1805925;78;20223;-87
2021/08/23 02:39:34;;;;;;;;;;;;;;;19.62;75.96;98088.77;1802760;78;25740;-88
2021/08/23 02:42:19;;;;;;;;;;;;;;;19.60;76.07;98088.92;1800199;78;22000;-87
2021/08/23 02:44:45;;;;;;;;;;;;;;;19.64;76.14;98088.07;1806668;78;25991;-89
2021/08/23 02:47:11;;;;;;;;;;;;;;;19.66;76.25;98090.06;1807458;78;20307;-89
2021/08/23 02:49:37;;;;;;;;;;;;;;;19.64;76.31;98088.91;1792679;77;20303;-89
2021/08/23 02:52:03;;;;;;;;;;;;;;;19.68;76.40;98084.59;1743237;80;20240;-89
2021/08/23 02:54:32;;;;;;;;;;;;;;;19.68;76.47;98088.08;1748526;79;21969;-89
2021/08/23 02:56:59;;;;;;;;;;;;;;;19.71;76.56;98090.88;1750253;79;26054;-89
2021/08/23 02:59:27;;;;;;;;;;;;;;;19.73;76.63;98096.84;1792267;78;24532;-87
2021/08/23 03:01:53;;;;;;;;;;;;;;;19.74;76.70;98098.02;1790324;78;20224;-87
2021/08/23 03:04:19;;;;;;;;;;;;;;;19.71;76.77;98099.66;1791748;78;24840;-85
2021/08/23 03:06:45;;;;;;;;;;;;;;;19.67;76.84;98103.67;1789329;78;21588;-85
2021/08/23 03:09:11;;;;;;;;;;;;;;;19.58;76.92;98102.06;1790189;79;25877;-85
2021/08/23 03:11:37;;;;;;;;;;;;;;;19.52;76.98;98103.58;1792096;78;24370;-86
2021/08/23 03:14:03;;;;;;;;;;;;;;;19.49;77.07;98097.77;1791242;79;20789;-85
2021/08/23 03:16:31;;;;;;;;;;;;;;;19.45;77.13;98107.91;1791375;78;20322;-88
2021/08/23 03:19:00;;;;;;;;;;;;;;;19.43;77.21;98115.16;1790097;79;21833;-88
2021/08/23 03:21:26;;;;;;;;;;;;;;;19.39;77.32;98120.98;1791046;78;26250;-88
2021/08/23 03:23:52;;;;;;;;;;;;;;;19.35;77.40;98120.52;1790523;79;24456;-88
2021/08/23 03:26:18;;;;;;;;;;;;;;;19.31;77.51;98123.68;1794689;78;20515;-88
2021/08/23 03:28:44;;;;;;;;;;;;;;;19.27;77.61;98127.64;1791083;79;20794;-88
2021/08/23 03:31:11;;;;;;;;;;;;;;;19.25;77.75;98133.64;1790694;78;22274;-88
2021/08/23 03:33:40;;;;;;;;;;;;;;;19.23;77.82;98129.82;1791266;78;20989;-88
2021/08/23 03:36:06;;;;;;;;;;;;;;;19.22;77.94;98117.05;1789278;78;24483;-88
2021/08/23 03:38:38;;;;;;;;;;;;;;;19.20;78.04;98117.70;1791839;78;20880;-87
2021/08/23 03:41:05;;;;;;;;;;;;;;;19.17;78.14;98123.86;1794017;78;24892;-87
2021/08/23 03:43:32;;;;;;;;;;;;;;;19.17;78.24;98125.19;1790521;79;22049;-89
2021/08/23 03:45:58;;;;;;;;;;;;;;;19.17;78.32;98122.53;1792420;79;26914;-88
2021/08/23 03:48:24;;;;;;;;;;;;;;;19.14;78.42;98125.04;1790862;79;20925;-89
2021/08/23 03:50:50;;;;;;;;;;;;;;;19.12;78.50;98127.52;1776541;79;20891;-89
2021/08/23 03:53:23;;;;;;;;;;;;;;;19.11;78.56;98125.36;1769867;80;20534;-89
2021/08/23 03:55:49;;;;;;;;;;;;;;;19.10;78.65;98121.54;1769436;80;22072;-89
2021/08/23 03:58:15;;;;;;;;;;;;;;;19.07;78.73;98125.37;1768907;80;26194;-88
2021/08/23 04:00:41;;;;;;;;;;;;;;;19.05;78.78;98122.55;1770737;80;20245;-88
2021/08/23 04:03:08;;;;;;;;;;;;;;;19.03;78.86;98122.73;1768017;80;20238;-88
2021/08/23 04:05:49;;;;;;;;;;;;;;;19.01;78.94;98120.73;1772125;80;25623;-89
2021/08/23 04:08:15;;;;;;;;;;;;;;;18.98;79.00;98125.06;1769856;80;21984;-89
2021/08/23 04:10:56;;;;;;;;;;;;;;;18.96;79.09;98123.56;1772661;80;25944;-87
2021/08/23 04:13:27;;;;;;;;;;;;;;;18.93;79.13;98132.66;1772579;80;37449;-87
2021/08/23 04:15:52;;;;;;;;;;;;;;;18.89;79.20;98132.67;1737546;80;20443;-87
2021/08/23 04:18:30;;;;;;;;;;;;;;;18.88;79.28;98131.50;1758500;80;24865;-87
2021/08/23 04:21:02;;;;;;;;;;;;;;;18.84;79.36;98132.34;1765866;80;22071;-87
2021/08/23 04:23:28;;;;;;;;;;;;;;;18.82;79.43;98133.00;1758973;80;26016;-90
2021/08/23 04:25:54;;;;;;;;;;;;;;;18.78;79.50;98139.63;1763647;80;24491;-88
2021/08/23 04:28:25;;;;;;;;;;;;;;;18.76;79.56;98147.75;1761851;80;20259;-87
2021/08/23 04:30:52;;;;;;;;;;;;;;;18.76;79.62;98154.91;1763805;80;24802;-86
2021/08/23 04:33:18;;;;;;;;;;;;;;;18.75;79.70;98152.74;1760851;80;21933;-86
2021/08/23 04:35:44;;;;;;;;;;;;;;;18.73;79.75;98152.56;1770977;80;26001;-86
2021/08/23 04:38:10;;;;;;;;;;;;;;;18.70;79.82;98159.53;1758599;80;24345;-86
2021/08/23 04:40:36;;;;;;;;;;;;;;;18.70;79.88;98164.84;1762131;80;20529;-86
2021/08/23 04:43:02;;;;;;;;;;;;;;;18.67;79.93;98169.13;1760091;80;24757;-86
2021/08/23 04:45:28;;;;;;;;;;;;;;;18.69;80.00;98175.09;1761298;80;20365;-86
2021/08/23 04:47:56;;;;;;;;;;;;;;;18.69;80.06;98176.42;1763233;80;26020;-86
2021/08/23 04:50:22;;;;;;;;;;;;;;;18.69;80.12;98177.75;1770780;79;24690;-87
2021/08/23 04:53:00;;;;;;;;;;;;;;;18.67;80.17;98186.35;1776934;80;20199;-87
2021/08/23 04:55:27;;;;;;;;;;;;;;;18.64;80.23;98179.58;1749062;80;24575;-87
2021/08/23 04:57:55;;;;;;;;;;;;;;;18.61;80.29;98182.53;1776921;80;22137;-87
2021/08/23 05:00:21;;;;;;;;;;;;;;;18.60;80.32;98190.15;1776791;79;25921;-87
2021/08/23 05:02:47;;;;;;;;;;;;;;;18.59;80.38;98193.81;1776690;80;24750;-87
2021/08/23 05:05:13;;;;;;;;;;;;;;;18.59;80.43;98193.81;1776838;80;20400;-86
2021/08/23 05:07:39;;;;;;;;;;;;;;;18.61;80.47;98190.48;1776526;80;24788;-86
2021/08/23 05:10:06;;;;;;;;;;;;;;;18.61;80.53;98190.98;1776906;80;21971;-86
2021/08/23 05:12:32;;;;;;;;;;;;;;;18.56;80.56;98189.32;1776704;79;26027;-87
2021/08/23 05:14:58;;;;;;;;;;;;;;;18.55;80.60;98196.44;1776937;80;24164;-87
2021/08/23 05:17:25;;;;;;;;;;;;;;;18.54;80.66;98197.91;1776689;80;20428;-86
2021/08/23 05:19:52;;;;;;;;;;;;;;;18.55;80.73;98197.77;1776809;80;25748;-86
2021/08/23 05:22:18;;;;;;;;;;;;;;;18.53;80.77;98198.91;1776709;80;22059;-87
2021/08/23 05:24:50;;;;;;;;;;;;;;;18.52;80.83;98194.59;1776865;80;20975;-87
2021/08/23 05:27:16;;;;;;;;;;;;;;;18.50;80.85;98200.53;1775894;80;24452;-86
2021/08/23 05:29:46;;;;;;;;;;;;;;;18.46;80.92;98201.37;1776495;79;20358;-86
2021/08/23 05:32:16;;;;;;;;;;;;;;;18.44;80.95;98199.89;1775597;79;24828;-86
2021/08/23 05:34:39;;;;;;;;;;;;;;;18.44;81.00;98207.84;1775322;80;22080;-87
2021/08/23 05:37:05;;;;;;;;;;;;;;;18.42;81.04;98205.83;1745674;80;20982;-86
2021/08/23 05:39:31;;;;;;;;;;;;;;;18.44;81.08;98212.61;1775074;80;20975;-86
2021/08/23 05:41:57;;;;;;;;;;;;;;;18.46;81.14;98209.81;1776134;80;20828;-86
2021/08/23 05:44:23;;;;;;;;;;;;;;;18.46;81.18;98207.16;1774214;80;24855;-87
2021/08/23 05:46:49;;;;;;;;;;;;;;;18.45;81.21;98204.17;1774674;80;20266;-86
2021/08/23 05:49:15;;;;;;;;;;;;;;;18.46;81.23;98210.64;1775563;80;26060;-87
2021/08/23 05:51:44;;;;;;;;;;;;;;;18.43;81.26;98208.82;1781418;79;24407;-86
2021/08/23 05:54:10;;;;;;;;;;;;;;;18.39;81.29;98205.64;1768366;79;20262;-87
2021/08/23 05:56:40;;;;;;;;;;;;;;;18.37;81.30;98209.80;1786767;79;24751;-86
2021/08/23 05:59:05;;;;;;;;;;;;;;;18.36;81.29;98204.66;1786440;78;22345;-86
2021/08/23 06:01:33;;;;;;;;;;;;;;;18.35;81.35;98204.31;1786102;79;25993;-87
2021/08/23 06:03:59;;;;;;;;;;;;;;;18.34;81.38;98210.60;1785366;79;24538;-87
2021/08/23 06:06:25;;;;;;;;;;;;;;;18.32;81.41;98208.63;1789015;78;20809;-86
2021/08/23 06:08:51;;;;;;;;;;;;;;;18.34;81.44;98214.58;1787727;78;24755;-87
2021/08/23 06:11:17;;;;;;;;;;;;;;;18.34;81.49;98202.66;1786776;78;21938;-87
2021/08/23 06:13:43;;;;;;;;;;;;;;;18.31;81.54;98208.29;1787035;78;21292;-87
2021/08/23 06:16:09;;;;;;;;;;;;;;;18.25;81.53;98206.28;1786196;79;24456;-87
2021/08/23 06:18:41;;;;;;;;;;;;;;;18.24;81.56;98211.23;1787754;78;20271;-87
2021/08/23 06:21:10;;;;;;;;;;;;;;;18.19;81.61;98217.52;1786581;79;24729;-87
2021/08/23 06:23:36;;;;;;;;;;;;;;;18.09;81.60;98208.38;1786946;79;21991;-87
2021/08/23 06:26:03;;;;;;;;;;;;;;;18.17;81.68;98224.28;1787145;79;25917;-87
2021/08/23 06:28:30;;;;;;;;;;;;;;;18.16;81.71;98227.12;1756713;78;25539;-87
2021/08/23 06:30:56;;;;;;;;;;;;;;;18.16;81.76;98220.00;1785709;79;20232;-87
2021/08/23 06:33:22;;;;;;;;;;;;;;;18.15;81.79;98225.45;1785790;79;20282;-87
2021/08/23 06:35:48;;;;;;;;;;;;;;;18.14;81.87;98224.63;1787544;78;22076;-87
2021/08/23 06:38:16;;;;;;;;;;;;;;;18.15;81.91;98224.96;1787378;78;25948;-90
2021/08/23 06:40:42;;;;;;;;;;;;;;;18.13;81.95;98226.92;1786843;78;24399;-90
2021/08/23 06:43:08;;;;;;;;;;;;;;;18.13;82.00;98222.12;1786451;79;20808;-90
2021/08/23 06:45:37;;;;;;;;;;;;;;;18.12;82.02;98220.45;1786955;78;20270;-90
2021/08/23 06:48:11;;;;;;;;;;;;;;;18.11;82.06;98221.47;1788933;78;22000;-90
2021/08/23 06:50:48;;;;;;;;;;;;;;;18.11;82.12;98221.47;1786357;79;26991;-90
2021/08/23 06:53:17;;;;;;;;;;;;;;;18.12;82.16;98226.59;1792820;78;25632;-91
2021/08/23 06:55:49;;;;;;;;;;;;;;;18.15;82.21;98228.94;1789022;79;20423;-90
2021/08/23 06:58:15;;;;;;;;;;;;;;;18.15;82.26;98227.61;1788236;79;24841;-90
2021/08/23 07:00:41;;;;;;;;;;;;;;;18.14;82.29;98219.81;1789987;78;21946;-90
2021/08/23 07:03:14;;;;;;;;;;;;;;;18.14;82.33;98223.78;1791293;79;25906;-89
2021/08/23 07:05:40;;;;;;;;;;;;;;;18.12;82.37;98217.31;1790783;80;24427;-89
2021/08/23 07:08:14;;;;;;;;;;;;;;;18.15;82.41;98221.48;1792298;79;20207;-89
2021/08/23 07:10:46;;;;;;;;;;;;;;;18.17;82.45;98225.61;1796097;78;25426;-89
2021/08/23 07:13:12;;;;;;;;;;;;;;;18.19;82.53;98220.16;1791177;80;22206;-90
2021/08/23 07:15:46;;;;;;;;;;;;;;;18.21;82.57;98221.67;1791902;80;26619;-90
2021/08/23 07:18:18;;;;;;;;;;;;;;;18.24;82.62;98228.45;1790687;80;24620;-90
2021/08/23 07:21:05;;;;;;;;;;;;;;;18.29;82.66;98226.16;1789525;80;20251;-90
2021/08/23 07:23:46;;;;;;;;;;;;;;;18.32;82.70;98228.01;1793232;78;24736;-90
2021/08/23 07:26:12;;;;;;;;;;;;;;;18.35;82.76;98227.67;1791446;78;22040;-89
2021/08/23 07:28:38;;;;;;;;;;;;;;;18.39;82.79;98228.17;1791515;80;21010;-89
2021/08/23 07:31:09;;;;;;;;;;;;;;;18.41;82.83;98224.87;1788410;79;24438;-90
2021/08/23 07:33:34;;;;;;;;;;;;;;;18.42;82.84;98223.89;1759919;80;20302;-90
2021/08/23 07:36:00;;;;;;;;;;;;;;;18.44;82.89;98223.73;1790384;78;24826;-90
2021/08/23 07:38:26;;;;;;;;;;;;;;;18.46;82.95;98224.38;1793182;78;20415;-90
2021/08/23 07:40:52;;;;;;;;;;;;;;;18.47;82.97;98220.25;1789471;80;26025;-90
2021/08/23 07:43:18;;;;;;;;;;;;;;;18.51;83.00;98222.08;1790933;80;20911;-90
2021/08/23 07:45:45;;;;;;;;;;;;;;;18.56;83.04;98216.66;1791029;78;20422;-90
2021/08/23 07:48:11;;;;;;;;;;;;;;;18.63;83.09;98226.12;1792257;80;24721;-90
2021/08/23 07:50:43;;;;;;;;;;;;;;;18.68;83.11;98221.98;1790668;78;22013;-90
2021/08/23 07:53:10;;;;;;;;;;;;;;;18.73;83.14;98224.97;1767700;79;25980;-90
2021/08/23 07:55:50;;;;;;;;;;;;;;;18.75;83.19;98214.22;1758953;80;25336;-90
2021/08/23 07:58:16;;;;;;;;;;;;;;;18.71;83.16;98213.69;1759209;80;20283;-90
2021/08/23 08:00:45;;;;;;;;;;;;;;;18.72;83.17;98212.70;1764317;80;24792;-90
2021/08/23 08:03:11;;;;;;;;;;;;;;;18.77;83.22;98212.20;1767892;80;22025;-90
2021/08/23 08:05:37;;;;;;;;;;;;;;;18.80;83.23;98217.20;1757396;80;26710;-90
2021/08/23 08:08:08;;;;;;;;;;;;;;;18.88;83.30;98212.38;1762417;80;24401;-90
2021/08/23 08:10:34;;;;;;;;;;;;;;;18.97;83.35;98219.38;1759163;80;20490;-91
2021/08/23 08:13:02;;;;;;;;;;;;;;;19.00;83.41;98218.53;1760724;80;25410;-90
2021/08/23 08:15:28;;;;;;;;;;;;;;;19.04;83.43;98219.85;1761259;80;22799;-90
2021/08/23 08:17:54;;;;;;;;;;;;;;;19.06;83.42;98218.37;1730910;80;26129;-90
2021/08/23 08:20:28;;;;;;;;;;;;;;;19.06;83.40;98219.70;1757875;80;20848;-90
2021/08/23 08:23:03;;;;;;;;;;;;;;;19.03;83.39;98222.69;1756381;80;20288;-91
2021/08/23 08:25:30;;;;;;;;;;;;;;;19.07;83.38;98226.17;1758610;80;24739;-91
2021/08/23 08:27:56;;;;;;;;;;;;;;;19.11;83.39;98216.87;1758601;80;21980;-90
2021/08/23 08:30:22;;;;;;;;;;;;;;;19.20;83.42;98223.03;1759150;80;26027;-90
2021/08/23 08:32:49;;;;;;;;;;;;;;;19.27;83.46;98227.98;1719188;80;21335;-90
2021/08/23 08:35:15;;;;;;;;;;;;;;;19.32;83.49;98219.02;1766465;80;20907;-90
2021/08/23 08:37:46;;;;;;;;;;;;;;;19.38;83.52;98218.84;1766968;80;24707;-90
2021/08/23 08:40:13;;;;;;;;;;;;;;;19.43;83.52;98220.00;1763678;80;22795;-90
2021/08/23 08:42:40;;;;;;;;;;;;;;;19.57;83.57;98215.88;1763851;80;26071;-90
2021/08/23 08:45:07;;;;;;;;;;;;;;;19.67;83.63;98213.86;1765786;80;24503;-90
2021/08/23 08:47:34;;;;;;;;;;;;;;;19.79;83.65;98216.49;1759706;80;21017;-90
2021/08/23 08:50:03;;;;;;;;;;;;;;;19.86;83.68;98204.66;1762037;80;24630;-90
2021/08/23 08:52:30;;;;;;;;;;;;;;;19.92;83.67;98206.63;1779588;79;22049;-89
2021/08/23 08:55:00;;;;;;;;;;;;;;;19.92;83.64;98200.83;1808266;79;26264;-90
2021/08/23 08:57:26;;;;;;;;;;;;;;;20.02;83.65;98208.59;1807758;79;23934;-90
2021/08/23 08:59:52;;;;;;;;;;;;;;;20.11;83.68;98203.59;1808120;79;20258;-90
2021/08/23 09:02:18;;;;;;;;;;;;;;;20.19;83.73;98200.88;1808245;79;20280;-89
2021/08/23 09:04:43;;;;;;;;;;;;;;;20.22;83.69;98205.03;1779558;79;20815;-90
2021/08/23 09:07:10;;;;;;;;;;;;;;;20.23;83.60;98207.53;1808529;79;21004;-89
2021/08/23 09:09:36;;;;;;;;;;;;;;;20.29;83.61;98207.33;1807379;79;24402;-89
2021/08/23 09:12:03;;;;;;;;;;;;;;;20.33;83.56;98208.17;1807511;79;20871;-90
2021/08/23 09:14:35;;;;;;;;;;;;;;;20.37;83.54;98207.31;1807870;79;24793;-90
2021/08/23 09:17:08;;;;;;;;;;;;;;;20.40;83.49;98204.31;1797888;78;21853;-89
2021/08/23 09:19:36;;;;;;;;;;;;;;;20.39;83.41;98207.47;1798795;78;26006;-89
2021/08/23 09:22:04;;;;;;;;;;;;;;;20.48;83.38;98203.42;1807276;78;24521;-89
2021/08/23 09:24:31;;;;;;;;;;;;;;;20.56;83.35;98200.73;1808791;78;20269;-89
2021/08/23 09:26:59;;;;;;;;;;;;;;;20.65;83.30;98199.17;1760822;80;24885;-89
2021/08/23 09:29:25;;;;;;;;;;;;;;;20.82;83.33;98199.39;1781538;78;22048;-89
2021/08/23 09:31:55;;;;;;;;;;;;;;;20.97;83.35;98198.10;1797320;78;26575;-89
2021/08/23 09:34:21;;;;;;;;;;;;;;;21.14;83.40;98202.79;1754543;80;24439;-89
2021/08/23 09:36:48;;;;;;;;;;;;;;;21.21;83.35;98209.92;1799112;78;20319;-89
2021/08/23 09:39:17;;;;;;;;;;;;;;;21.23;83.23;98202.56;1793571;78;24629;-89
2021/08/23 09:41:46;;;;;;;;;;;;;;;21.28;83.16;98202.02;1755705;80;22038;-89
2021/08/23 09:44:21;;;;;;;;;;;;;;;21.33;83.04;98202.30;1754914;80;26883;-88
2021/08/23 09:46:59;;;;;;;;;;;;;;;21.42;82.96;98203.91;1797406;79;24497;-89
2021/08/23 09:49:27;;;;;;;;;;;;;;;21.51;82.84;98202.80;1797124;79;20243;-89
2021/08/23 09:51:54;;;;;;;;;;;;;;;21.54;82.75;98191.80;1790859;78;24952;-89
2021/08/23 09:54:26;;;;;;;;;;;;;;;21.52;82.57;98196.98;1716503;82;22145;-89
2021/08/23 09:56:54;;;;;;;;;;;;;;;21.46;82.37;98191.88;1746141;82;25947;-87
2021/08/23 09:59:37;;;;;;;;;;;;;;;21.40;82.18;98195.25;1742303;82;25460;-88
2021/08/23 10:02:02;;;;;;;;;;;;;;;21.35;82.00;98186.98;1751336;80;20211;-89
2021/08/23 10:04:34;;;;;;;;;;;;;;;21.33;81.79;98193.52;1725273;82;24735;-89
2021/08/23 10:07:00;;;;;;;;;;;;;;;21.29;81.61;98191.20;1760230;79;21983;-89
2021/08/23 10:09:30;;;;;;;;;;;;;;;21.38;81.56;98192.47;1756393;81;26041;-89
2021/08/23 10:11:57;;;;;;;;;;;;;;;21.46;81.54;98190.54;1756768;81;24395;-89
2021/08/23 10:14:24;;;;;;;;;;;;;;;21.50;81.44;98187.00;1753488;80;20246;-89
2021/08/23 10:16:53;;;;;;;;;;;;;;;21.52;81.36;98191.14;1756087;80;24944;-89
2021/08/23 10:19:19;;;;;;;;;;;;;;;21.52;81.24;98184.48;1754201;81;21952;-89
2021/08/23 10:21:46;;;;;;;;;;;;;;;21.56;81.15;98188.44;1754608;81;26193;-89
2021/08/23 10:24:29;;;;;;;;;;;;;;;21.58;81.09;98183.77;1724524;81;24498;-89
2021/08/23 10:26:57;;;;;;;;;;;;;;;21.49;80.86;98184.04;1755891;81;20289;-90
2021/08/23 10:29:30;;;;;;;;;;;;;;;21.37;80.62;98180.16;1757356;80;24379;-89
2021/08/23 10:31:58;;;;;;;;;;;;;;;21.29;80.42;98185.88;1755445;81;22104;-89
2021/08/23 10:34:26;;;;;;;;;;;;;;;21.30;80.27;98177.39;1753329;81;25955;-89
2021/08/23 10:36:51;;;;;;;;;;;;;;;21.33;80.16;98181.54;1728872;81;24512;-89
2021/08/23 10:39:19;;;;;;;;;;;;;;;21.39;80.10;98183.45;1756671;81;20910;-89
2021/08/23 10:41:52;;;;;;;;;;;;;;;21.44;80.02;98180.56;1757192;81;24825;-88
2021/08/23 10:44:26;;;;;;;;;;;;;;;21.43;79.87;98180.77;1756384;81;22717;-87
2021/08/23 10:46:58;;;;;;;;;;;;;;;21.45;79.71;98182.22;1753545;81;26340;-87
2021/08/23 10:49:23;;;;;;;;;;;;;;;21.53;79.64;98179.99;1753849;81;24666;-86
2021/08/23 10:52:00;;;;;;;;;;;;;;;21.52;79.49;98171.17;1756733;81;20298;-86
2021/08/23 10:54:27;;;;;;;;;;;;;;;21.59;79.44;98181.43;1755910;81;24738;-87
2021/08/23 10:57:01;;;;;;;;;;;;;;;21.62;79.35;98170.39;1756726;81;22075;-86
2021/08/23 10:59:44;;;;;;;;;;;;;;;21.69;79.30;98175.32;1755850;81;25986;-87
2021/08/23 11:02:30;;;;;;;;;;;;;;;21.75;79.25;98172.93;1753745;81;24297;-85
2021/08/23 11:04:56;;;;;;;;;;;;;;;21.79;79.12;98176.88;1755868;81;20258;-86
2021/08/23 11:07:28;;;;;;;;;;;;;;;21.79;78.92;98174.20;1764734;80;24841;-86
2021/08/23 11:10:14;;;;;;;;;;;;;;;21.77;78.77;98167.72;1767328;80;23448;-86
2021/08/23 11:12:41;;;;;;;;;;;;;;;21.82;78.65;98166.66;1727526;82;26046;-86
2021/08/23 11:15:13;;;;;;;;;;;;;;;21.88;78.53;98164.59;1743169;82;24495;-86
2021/08/23 11:17:41;;;;;;;;;;;;;;;21.93;78.41;98164.06;1744015;82;20289;-86
2021/08/23 11:20:08;;;;;;;;;;;;;;;21.98;78.20;98163.83;1744067;82;24706;-87
2021/08/23 11:22:34;;;;;;;;;;;;;;;22.03;77.99;98168.62;1726114;81;21996;-87
2021/08/23 11:25:00;;;;;;;;;;;;;;;22.10;77.85;98161.52;1728982;81;25915;-90
2021/08/23 11:27:28;;;;;;;;;;;;;;;22.15;77.66;98155.66;1760546;81;20633;-90
2021/08/23 11:29:56;;;;;;;;;;;;;;;22.22;77.54;98152.54;1760425;81;20159;-90
2021/08/23 11:32:26;;;;;;;;;;;;;;;22.29;77.37;98152.95;1756078;81;24741;-89
2021/08/23 11:34:53;;;;;;;;;;;;;;;22.36;77.26;98151.69;1756434;81;22097;-89
2021/08/23 11:37:23;;;;;;;;;;;;;;;22.33;76.94;98152.05;1756235;81;26034;-90
2021/08/23 11:39:48;;;;;;;;;;;;;;;22.40;76.69;98151.63;1753554;80;24383;-90
2021/08/23 11:42:15;;;;;;;;;;;;;;;22.44;76.59;98148.39;1756224;80;20335;-89
2021/08/23 11:44:43;;;;;;;;;;;;;;;22.45;76.35;98146.55;1754436;81;24820;-89
2021/08/23 11:47:09;;;;;;;;;;;;;;;22.50;76.17;98148.14;1755567;81;21990;-90
2021/08/23 11:49:40;;;;;;;;;;;;;;;22.52;75.92;98140.78;1756384;81;21633;-90
2021/08/23 11:52:19;;;;;;;;;;;;;;;22.54;75.66;98142.23;1767669;80;24522;-90
2021/08/23 11:54:47;;;;;;;;;;;;;;;22.51;75.39;98147.13;1719811;82;20237;-90
2021/08/23 11:57:16;;;;;;;;;;;;;;;22.51;75.14;98146.63;1746579;81;24855;-89
2021/08/23 11:59:43;;;;;;;;;;;;;;;22.49;74.92;98149.15;1731145;82;22098;-90
2021/08/23 12:02:13;;;;;;;;;;;;;;;22.40;74.64;98148.95;1729387;81;26076;-90
2021/08/23 12:04:39;;;;;;;;;;;;;;;22.40;74.45;98152.95;1759541;81;24534;-91
2021/08/23 12:07:13;;;;;;;;;;;;;;;22.37;74.24;98146.15;1718811;81;20187;-91
2021/08/23 12:09:44;;;;;;;;;;;;;;;22.38;74.06;98148.31;1747729;81;24805;-90
2021/08/23 12:12:07;;;;;;;;;;;;;;;22.40;73.91;98143.13;1754851;81;21917;-89
2021/08/23 12:14:35;;;;;;;;;;;;;;;22.40;73.76;98146.30;1756525;81;21032;-89
2021/08/23 12:17:08;;;;;;;;;;;;;;;22.40;73.51;98144.96;1756099;81;24430;-86
2021/08/23 12:19:34;;;;;;;;;;;;;;;22.41;73.36;98144.78;1755511;81;20234;-86
2021/08/23 12:22:04;;;;;;;;;;;;;;;22.41;73.20;98147.45;1756762;81;25396;-86
2021/08/23 12:24:30;;;;;;;;;;;;;;;22.43;73.09;98140.57;1754385;81;22749;-86
2021/08/23 12:27:00;;;;;;;;;;;;;;;22.49;72.97;98144.64;1756181;81;20979;-86
2021/08/23 12:29:34;;;;;;;;;;;;;;;22.51;72.87;98141.80;1754074;80;24443;-86
2021/08/23 12:31:57;;;;;;;;;;;;;;;22.45;72.60;98134.55;1755574;81;20249;-86
2021/08/23 12:34:28;;;;;;;;;;;;;;;22.38;72.29;98139.81;1756817;81;24837;-86
2021/08/23 12:37:00;;;;;;;;;;;;;;;22.37;72.08;98135.48;1756803;81;21990;-86
2021/08/23 12:39:27;;;;;;;;;;;;;;;22.42;71.93;98132.28;1754941;81;25988;-86
2021/08/23 12:41:55;;;;;;;;;;;;;;;22.52;71.84;98125.61;1753228;81;20349;-86
2021/08/23 12:44:21;;;;;;;;;;;;;;;22.64;71.65;98131.78;1754381;81;20492;-86
2021/08/23 12:46:47;;;;;;;;;;;;;;;22.62;71.36;98122.62;1754856;81;24804;-86
2021/08/23 12:49:20;;;;;;;;;;;;;;;22.68;71.10;98116.52;1756535;81;21971;-86
2021/08/23 12:51:47;;;;;;;;;;;;;;;22.80;70.82;98108.33;1755139;81;27802;-86
2021/08/23 12:54:13;;;;;;;;;;;;;;;22.89;70.56;98097.86;1752858;81;24435;-86